Maldonado, Uruguay

9:03 AM UYT on February 07, 2016 (GMT -0300)
PWS Uruguay Retono | | Change Station
CLOSE
Current Station
Personal Weather Station
Location: Maldonado, MALDONADO
Elevation: 115 ft
Nearby Weather Stations

Elev 115 ft 34.81 °S, 55.01 °W | Updated 6 seconds ago

Mostly Cloudy
Mostly Cloudy
75.4 °F
Feels Like 77 °F
N
5.8
Wind Variable Wind from NE
Gusts 7.4 mph

Today
High -- | Low -- °F
--% Chance of Precip.
Yesterday
High -- | Low -- °F
Precip. -- in
Pressure 30.01 in
Visibility 6.2 miles
Clouds Scattered Clouds 1600 ft
Mostly Cloudy 20000 ft
Heat Index 77 °F
Dew Point 66 °F
Humidity 72%
Rainfall 0.00 in
Snow Depth Not available.
6:05 AM 7:42 PM
Waning Crescent, 2% visible
SPECI SULS 071200Z 05015KT 9999 SCT016 BKN200 24/18 Q1016
Pressure 30.01 in
Visibility 6.2 miles
Clouds Scattered Clouds 1600 ft
Mostly Cloudy 20000 ft
Heat Index 77 °F
Dew Point 66 °F
Humidity 72%
Rainfall 0.00 in
Snow Depth Not available.
6:05 AM 7:42 PM
Waning Crescent, 2% visible
SPECI SULS 071200Z 05015KT 9999 SCT016 BKN200 24/18 Q1016

10-Day Weather Forecast

No radar image for this location.
×

Almanac

Astronomy

Feb. 07, 2016 Rise Set
Actual Time
Civil Twilight
Nautical Twilight
Astronomical Twilight
Moon
Length of Visible Light
Length of Day
Tomorrow will be .
, % of the Moon is Illuminated

Today's Extremes

Country Highs Country Lows

Community

WunderPhotos

Upload Photos

1,891,182 photos uploaded!

WunderBlog® & News

Nearby

Air Quality

  Air Quality AQ Index Pollutant
Not available.

Snow Depth

Station Depth Elevation

Earthquake Activity

City Distance Mag. Time & Date
Minimum magnitude displayed is 2.5.

Coastal Water Temperatures

Place Temperature

Stations

Nearby Weather Stations

Station Location Temp. Windchill Dew Point Humidity Wind Precip. Elev Updated Type